sensor_id;sensor_type;location;lat;lon;timestamp;temperature;humidity
32173;DHT22;18679;45.190;5.722;2022-09-01T00:00:10;25.00;51.70
32173;DHT22;18679;45.190;5.722;2022-09-01T00:03:12;24.80;51.80
32173;DHT22;18679;45.190;5.722;2022-09-01T00:06:15;24.80;52.00
32173;DHT22;18679;45.190;5.722;2022-09-01T00:09:22;24.70;52.10
32173;DHT22;18679;45.190;5.722;2022-09-01T00:12:24;24.70;52.10
32173;DHT22;18679;45.190;5.722;2022-09-01T00:15:25;24.70;52.20
32173;DHT22;18679;45.190;5.722;2022-09-01T00:18:26;24.60;52.20
32173;DHT22;18679;45.190;5.722;2022-09-01T00:21:31;24.60;52.30
32173;DHT22;18679;45.190;5.722;2022-09-01T00:24:34;24.60;52.40
32173;DHT22;18679;45.190;5.722;2022-09-01T00:27:35;24.50;52.50
32173;DHT22;18679;45.190;5.722;2022-09-01T00:30:36;24.50;52.60
32173;DHT22;18679;45.190;5.722;2022-09-01T00:33:37;24.50;52.60
32173;DHT22;18679;45.190;5.722;2022-09-01T00:36:38;24.40;52.60
32173;DHT22;18679;45.190;5.722;2022-09-01T00:39:39;24.40;52.70
32173;DHT22;18679;45.190;5.722;2022-09-01T00:42:40;24.40;52.70
32173;DHT22;18679;45.190;5.722;2022-09-01T00:45:42;24.40;52.80
32173;DHT22;18679;45.190;5.722;2022-09-01T00:48:43;24.40;52.80
32173;DHT22;18679;45.190;5.722;2022-09-01T00:51:47;24.40;53.40
32173;DHT22;18679;45.190;5.722;2022-09-01T00:54:53;24.40;53.10
32173;DHT22;18679;45.190;5.722;2022-09-01T00:57:58;24.40;53.00
32173;DHT22;18679;45.190;5.722;2022-09-01T01:00:59;24.40;53.10
32173;DHT22;18679;45.190;5.722;2022-09-01T01:04:05;24.30;53.10
32173;DHT22;18679;45.190;5.722;2022-09-01T01:07:06;24.30;53.30
32173;DHT22;18679;45.190;5.722;2022-09-01T01:10:11;24.30;53.40
32173;DHT22;18679;45.190;5.722;2022-09-01T01:13:16;24.20;53.60
32173;DHT22;18679;45.190;5.722;2022-09-01T01:16:17;24.20;53.70
32173;DHT22;18679;45.190;5.722;2022-09-01T01:26:04;24.00;53.90
32173;DHT22;18679;45.190;5.722;2022-09-01T01:29:06;24.00;53.90
32173;DHT22;18679;45.190;5.722;2022-09-01T01:32:10;24.00;53.90
32173;DHT22;18679;45.190;5.722;2022-09-01T01:35:15;24.00;53.90
32173;DHT22;18679;45.190;5.722;2022-09-01T01:38:18;24.00;53.90
32173;DHT22;18679;45.190;5.722;2022-09-01T01:41:20;24.00;53.90
32173;DHT22;18679;45.190;5.722;2022-09-01T01:44:23;24.00;53.80
32173;DHT22;18679;45.190;5.722;2022-09-01T01:47:29;24.00;53.70
32173;DHT22;18679;45.190;5.722;2022-09-01T01:50:31;24.00;53.80
32173;DHT22;18679;45.190;5.722;2022-09-01T01:53:36;24.00;54.00
32173;DHT22;18679;45.190;5.722;2022-09-01T01:56:38;24.00;54.10
32173;DHT22;18679;45.190;5.722;2022-09-01T01:59:41;24.00;54.20
32173;DHT22;18679;45.190;5.722;2022-09-01T02:02:42;23.90;54.20
32173;DHT22;18679;45.190;5.722;2022-09-01T02:05:49;23.90;54.40
32173;DHT22;18679;45.190;5.722;2022-09-01T02:08:55;23.90;54.60
32173;DHT22;18679;45.190;5.722;2022-09-01T02:11:57;23.90;54.70
32173;DHT22;18679;45.190;5.722;2022-09-01T02:14:59;23.80;54.80
32173;DHT22;18679;45.190;5.722;2022-09-01T02:18:00;23.80;55.00
32173;DHT22;18679;45.190;5.722;2022-09-01T02:21:06;23.70;55.10
32173;DHT22;18679;45.190;5.722;2022-09-01T02:24:10;23.70;55.20
32173;DHT22;18679;45.190;5.722;2022-09-01T02:27:12;23.60;55.30
32173;DHT22;18679;45.190;5.722;2022-09-01T02:30:15;23.50;55.50
32173;DHT22;18679;45.190;5.722;2022-09-01T02:33:17;23.40;55.60
32173;DHT22;18679;45.190;5.722;2022-09-01T02:36:21;23.40;55.70
32173;DHT22;18679;45.190;5.722;2022-09-01T02:39:27;23.40;55.70
32173;DHT22;18679;45.190;5.722;2022-09-01T02:42:28;23.30;55.90
32173;DHT22;18679;45.190;5.722;2022-09-01T02:45:30;23.30;55.80
32173;DHT22;18679;45.190;5.722;2022-09-01T02:48:35;23.40;55.90
32173;DHT22;18679;45.190;5.722;2022-09-01T02:51:37;23.40;56.00
32173;DHT22;18679;45.190;5.722;2022-09-01T02:54:39;23.40;55.90
32173;DHT22;18679;45.190;5.722;2022-09-01T02:57:39;23.40;55.90
32173;DHT22;18679;45.190;5.722;2022-09-01T03:00:44;23.40;56.00
32173;DHT22;18679;45.190;5.722;2022-09-01T03:03:46;23.40;56.00
32173;DHT22;18679;45.190;5.722;2022-09-01T03:06:48;23.40;56.10
32173;DHT22;18679;45.190;5.722;2022-09-01T03:09:52;23.40;56.20
32173;DHT22;18679;45.190;5.722;2022-09-01T03:12:53;23.40;56.20
32173;DHT22;18679;45.190;5.722;2022-09-01T03:15:55;23.30;56.20
32173;DHT22;18679;45.190;5.722;2022-09-01T03:18:57;23.30;56.20
32173;DHT22;18679;45.190;5.722;2022-09-01T03:21:58;23.30;56.20
32173;DHT22;18679;45.190;5.722;2022-09-01T03:25:00;23.30;56.20
32173;DHT22;18679;45.190;5.722;2022-09-01T03:28:03;23.20;56.10
32173;DHT22;18679;45.190;5.722;2022-09-01T03:31:05;23.20;56.00
32173;DHT22;18679;45.190;5.722;2022-09-01T03:34:07;23.10;56.10
32173;DHT22;18679;45.190;5.722;2022-09-01T03:37:15;23.10;56.30
32173;DHT22;18679;45.190;5.722;2022-09-01T03:40:17;23.10;56.40
32173;DHT22;18679;45.190;5.722;2022-09-01T03:43:20;23.10;56.50
32173;DHT22;18679;45.190;5.722;2022-09-01T03:46:25;23.00;56.50
32173;DHT22;18679;45.190;5.722;2022-09-01T03:49:26;23.00;56.70
32173;DHT22;18679;45.190;5.722;2022-09-01T03:52:29;23.00;56.80
32173;DHT22;18679;45.190;5.722;2022-09-01T03:55:32;23.00;56.90
32173;DHT22;18679;45.190;5.722;2022-09-01T03:58:34;23.00;57.00
32173;DHT22;18679;45.190;5.722;2022-09-01T04:01:35;23.00;57.20
32173;DHT22;18679;45.190;5.722;2022-09-01T04:04:39;23.00;57.30
32173;DHT22;18679;45.190;5.722;2022-09-01T04:07:40;22.90;57.30
32173;DHT22;18679;45.190;5.722;2022-09-01T04:10:50;23.00;57.40
32173;DHT22;18679;45.190;5.722;2022-09-01T04:13:52;22.90;57.40
32173;DHT22;18679;45.190;5.722;2022-09-01T04:16:53;22.90;57.30
32173;DHT22;18679;45.190;5.722;2022-09-01T04:20:12;22.90;57.20
32173;DHT22;18679;45.190;5.722;2022-09-01T04:23:24;22.90;57.20
32173;DHT22;18679;45.190;5.722;2022-09-01T04:26:27;22.80;57.20
32173;DHT22;18679;45.190;5.722;2022-09-01T04:29:31;22.80;57.20
32173;DHT22;18679;45.190;5.722;2022-09-01T04:32:32;22.80;57.20
32173;DHT22;18679;45.190;5.722;2022-09-01T04:35:38;22.80;57.30
32173;DHT22;18679;45.190;5.722;2022-09-01T04:38:39;22.80;57.40
32173;DHT22;18679;45.190;5.722;2022-09-01T04:41:43;22.70;57.40
32173;DHT22;18679;45.190;5.722;2022-09-01T04:44:46;22.70;57.50
32173;DHT22;18679;45.190;5.722;2022-09-01T04:47:48;22.70;57.70
32173;DHT22;18679;45.190;5.722;2022-09-01T04:50:51;22.70;57.70
32173;DHT22;18679;45.190;5.722;2022-09-01T04:54:00;22.70;57.80
32173;DHT22;18679;45.190;5.722;2022-09-01T04:57:04;22.70;57.90
32173;DHT22;18679;45.190;5.722;2022-09-01T05:00:11;22.60;57.90
32173;DHT22;18679;45.190;5.722;2022-09-01T05:03:23;22.60;57.80
32173;DHT22;18679;45.190;5.722;2022-09-01T05:06:51;22.50;57.80
32173;DHT22;18679;45.190;5.722;2022-09-01T05:10:00;22.50;57.80
32173;DHT22;18679;45.190;5.722;2022-09-01T05:13:20;22.50;57.90
32173;DHT22;18679;45.190;5.722;2022-09-01T05:16:24;22.40;57.90
32173;DHT22;18679;45.190;5.722;2022-09-01T05:19:26;22.40;57.90
32173;DHT22;18679;45.190;5.722;2022-09-01T05:22:32;22.40;57.90
32173;DHT22;18679;45.190;5.722;2022-09-01T05:25:39;22.50;57.90
32173;DHT22;18679;45.190;5.722;2022-09-01T05:28:50;22.50;57.90
32173;DHT22;18679;45.190;5.722;2022-09-01T05:31:54;22.50;57.80
32173;DHT22;18679;45.190;5.722;2022-09-01T05:34:55;22.50;57.70
32173;DHT22;18679;45.190;5.722;2022-09-01T05:37:56;22.50;57.70
32173;DHT22;18679;45.190;5.722;2022-09-01T05:41:01;22.60;57.70
32173;DHT22;18679;45.190;5.722;2022-09-01T05:44:04;22.60;57.60
32173;DHT22;18679;45.190;5.722;2022-09-01T05:47:08;22.60;57.60
32173;DHT22;18679;45.190;5.722;2022-09-01T05:50:11;22.60;57.50
32173;DHT22;18679;45.190;5.722;2022-09-01T05:53:16;22.60;57.40
32173;DHT22;18679;45.190;5.722;2022-09-01T05:56:18;22.60;57.40
32173;DHT22;18679;45.190;5.722;2022-09-01T05:59:19;22.60;57.50
32173;DHT22;18679;45.190;5.722;2022-09-01T06:02:22;22.60;57.60
32173;DHT22;18679;45.190;5.722;2022-09-01T06:05:30;22.60;57.60
32173;DHT22;18679;45.190;5.722;2022-09-01T06:08:35;22.60;57.50
32173;DHT22;18679;45.190;5.722;2022-09-01T06:11:37;22.60;57.60
32173;DHT22;18679;45.190;5.722;2022-09-01T06:14:42;22.50;57.50
32173;DHT22;18679;45.190;5.722;2022-09-01T06:17:52;22.60;57.60
32173;DHT22;18679;45.190;5.722;2022-09-01T06:20:56;22.60;57.80
32173;DHT22;18679;45.190;5.722;2022-09-01T06:23:57;22.60;57.80
32173;DHT22;18679;45.190;5.722;2022-09-01T06:27:00;22.60;57.70
32173;DHT22;18679;45.190;5.722;2022-09-01T06:30:01;22.70;57.70
32173;DHT22;18679;45.190;5.722;2022-09-01T06:33:06;22.70;57.60
32173;DHT22;18679;45.190;5.722;2022-09-01T06:36:09;22.70;57.40
32173;DHT22;18679;45.190;5.722;2022-09-01T06:39:11;22.80;57.30
32173;DHT22;18679;45.190;5.722;2022-09-01T06:42:22;22.90;57.20
32173;DHT22;18679;45.190;5.722;2022-09-01T06:45:29;22.90;57.10
32173;DHT22;18679;45.190;5.722;2022-09-01T06:48:30;23.00;57.10
32173;DHT22;18679;45.190;5.722;2022-09-01T06:51:40;23.00;56.90
32173;DHT22;18679;45.190;5.722;2022-09-01T06:54:41;23.10;56.90
32173;DHT22;18679;45.190;5.722;2022-09-01T06:57:43;23.20;56.80
32173;DHT22;18679;45.190;5.722;2022-09-01T07:00:52;23.20;56.60
32173;DHT22;18679;45.190;5.722;2022-09-01T07:03:54;23.30;56.50
32173;DHT22;18679;45.190;5.722;2022-09-01T07:07:04;23.40;56.30
32173;DHT22;18679;45.190;5.722;2022-09-01T07:10:28;23.40;55.90
32173;DHT22;18679;45.190;5.722;2022-09-01T07:13:36;23.40;55.70
32173;DHT22;18679;45.190;5.722;2022-09-01T07:16:39;23.40;55.70
32173;DHT22;18679;45.190;5.722;2022-09-01T07:19:41;23.50;55.50
32173;DHT22;18679;45.190;5.722;2022-09-01T07:22:43;23.60;55.30
32173;DHT22;18679;45.190;5.722;2022-09-01T07:25:45;23.60;55.10
32173;DHT22;18679;45.190;5.722;2022-09-01T07:28:57;23.70;55.00
32173;DHT22;18679;45.190;5.722;2022-09-01T07:31:58;23.70;54.70
32173;DHT22;18679;45.190;5.722;2022-09-01T07:34:59;23.80;54.60
32173;DHT22;18679;45.190;5.722;2022-09-01T07:38:01;23.90;54.50
32173;DHT22;18679;45.190;5.722;2022-09-01T07:41:03;24.00;54.40
32173;DHT22;18679;45.190;5.722;2022-09-01T07:44:30;24.10;54.20
32173;DHT22;18679;45.190;5.722;2022-09-01T07:47:51;24.20;53.80
32173;DHT22;18679;45.190;5.722;2022-09-01T07:50:54;24.30;53.60
32173;DHT22;18679;45.190;5.722;2022-09-01T07:53:58;24.30;53.30
32173;DHT22;18679;45.190;5.722;2022-09-01T07:57:02;24.30;53.30
32173;DHT22;18679;45.190;5.722;2022-09-01T08:00:10;24.50;53.30
32173;DHT22;18679;45.190;5.722;2022-09-01T08:03:16;24.50;53.00
32173;DHT22;18679;45.190;5.722;2022-09-01T08:06:21;24.70;53.00
32173;DHT22;18679;45.190;5.722;2022-09-01T08:09:25;24.80;52.80
32173;DHT22;18679;45.190;5.722;2022-09-01T08:12:27;24.90;52.40
32173;DHT22;18679;45.190;5.722;2022-09-01T08:15:29;25.00;52.10
32173;DHT22;18679;45.190;5.722;2022-09-01T08:18:30;25.10;51.90
32173;DHT22;18679;45.190;5.722;2022-09-01T08:21:32;25.20;51.70
32173;DHT22;18679;45.190;5.722;2022-09-01T08:24:40;25.40;51.60
32173;DHT22;18679;45.190;5.722;2022-09-01T08:27:41;25.50;51.30
32173;DHT22;18679;45.190;5.722;2022-09-01T08:30:43;25.70;50.90
32173;DHT22;18679;45.190;5.722;2022-09-01T08:33:47;25.80;50.70
32173;DHT22;18679;45.190;5.722;2022-09-01T08:36:48;25.90;50.30
32173;DHT22;18679;45.190;5.722;2022-09-01T08:39:50;26.00;50.10
32173;DHT22;18679;45.190;5.722;2022-09-01T08:46:46;26.30;49.30
32173;DHT22;18679;45.190;5.722;2022-09-01T08:49:50;26.30;49.10
32173;DHT22;18679;45.190;5.722;2022-09-01T08:53:06;26.40;48.90
32173;DHT22;18679;45.190;5.722;2022-09-01T08:56:10;26.40;49.00
32173;DHT22;18679;45.190;5.722;2022-09-01T08:59:12;26.50;48.70
32173;DHT22;18679;45.190;5.722;2022-09-01T09:06:18;26.60;48.70
32173;DHT22;18679;45.190;5.722;2022-09-01T09:09:31;26.70;48.50
32173;DHT22;18679;45.190;5.722;2022-09-01T09:16:09;26.80;48.50
32173;DHT22;18679;45.190;5.722;2022-09-01T09:19:16;26.90;48.50
32173;DHT22;18679;45.190;5.722;2022-09-01T09:22:19;26.90;48.30
32173;DHT22;18679;45.190;5.722;2022-09-01T09:25:20;27.00;48.30
32173;DHT22;18679;45.190;5.722;2022-09-01T09:28:23;27.00;48.20
32173;DHT22;18679;45.190;5.722;2022-09-01T09:31:34;27.00;48.20
32173;DHT22;18679;45.190;5.722;2022-09-01T09:34:40;27.00;48.30
32173;DHT22;18679;45.190;5.722;2022-09-01T09:37:41;27.00;48.20
32173;DHT22;18679;45.190;5.722;2022-09-01T09:40:58;27.00;48.20
32173;DHT22;18679;45.190;5.722;2022-09-01T09:47:37;27.20;48.20
32173;DHT22;18679;45.190;5.722;2022-09-01T09:50:40;27.30;48.10
32173;DHT22;18679;45.190;5.722;2022-09-01T09:53:43;27.50;47.80
32173;DHT22;18679;45.190;5.722;2022-09-01T09:56:46;27.50;47.40
32173;DHT22;18679;45.190;5.722;2022-09-01T10:03:07;27.40;47.40
32173;DHT22;18679;45.190;5.722;2022-09-01T10:06:15;27.50;47.70
32173;DHT22;18679;45.190;5.722;2022-09-01T10:12:31;27.50;47.40
32173;DHT22;18679;45.190;5.722;2022-09-01T10:15:33;27.60;47.30
32173;DHT22;18679;45.190;5.722;2022-09-01T10:18:41;27.60;47.20
32173;DHT22;18679;45.190;5.722;2022-09-01T10:21:45;27.70;47.10
32173;DHT22;18679;45.190;5.722;2022-09-01T10:24:47;27.80;47.00
32173;DHT22;18679;45.190;5.722;2022-09-01T10:27:51;28.00;47.00
32173;DHT22;18679;45.190;5.722;2022-09-01T10:30:56;28.10;46.80
32173;DHT22;18679;45.190;5.722;2022-09-01T10:34:01;28.30;46.60
32173;DHT22;18679;45.190;5.722;2022-09-01T10:37:05;28.50;46.40
32173;DHT22;18679;45.190;5.722;2022-09-01T10:40:34;28.50;46.10
32173;DHT22;18679;45.190;5.722;2022-09-01T10:43:44;28.60;46.40
32173;DHT22;18679;45.190;5.722;2022-09-01T10:46:46;28.90;45.20
32173;DHT22;18679;45.190;5.722;2022-09-01T10:52:54;29.40;43.50
32173;DHT22;18679;45.190;5.722;2022-09-01T10:59:05;30.10;41.80
32173;DHT22;18679;45.190;5.722;2022-09-01T11:02:14;30.30;41.20
32173;DHT22;18679;45.190;5.722;2022-09-01T11:05:16;30.60;40.90
32173;DHT22;18679;45.190;5.722;2022-09-01T11:08:23;30.80;40.50
32173;DHT22;18679;45.190;5.722;2022-09-01T11:18:00;31.30;38.50
32173;DHT22;18679;45.190;5.722;2022-09-01T11:21:28;31.40;38.40
32173;DHT22;18679;45.190;5.722;2022-09-01T11:30:56;32.10;37.50
32173;DHT22;18679;45.190;5.722;2022-09-01T11:34:16;32.10;37.40
32173;DHT22;18679;45.190;5.722;2022-09-01T11:37:23;32.10;37.10
32173;DHT22;18679;45.190;5.722;2022-09-01T11:40:30;32.00;37.50
32173;DHT22;18679;45.190;5.722;2022-09-01T11:43:32;32.10;37.30
32173;DHT22;18679;45.190;5.722;2022-09-01T11:46:34;32.30;36.90
32173;DHT22;18679;45.190;5.722;2022-09-01T11:49:39;32.60;36.40
32173;DHT22;18679;45.190;5.722;2022-09-01T11:56:23;33.30;36.00
32173;DHT22;18679;45.190;5.722;2022-09-01T11:59:35;33.70;35.20
32173;DHT22;18679;45.190;5.722;2022-09-01T12:02:45;34.20;34.50
32173;DHT22;18679;45.190;5.722;2022-09-01T12:05:51;34.70;33.90
32173;DHT22;18679;45.190;5.722;2022-09-01T12:09:00;35.00;32.80
32173;DHT22;18679;45.190;5.722;2022-09-01T12:12:06;35.40;32.60
32173;DHT22;18679;45.190;5.722;2022-09-01T12:15:21;35.80;31.90
32173;DHT22;18679;45.190;5.722;2022-09-01T12:18:32;36.30;31.10
32173;DHT22;18679;45.190;5.722;2022-09-01T12:21:42;36.70;30.50
32173;DHT22;18679;45.190;5.722;2022-09-01T12:24:55;37.10;30.00
32173;DHT22;18679;45.190;5.722;2022-09-01T12:28:02;37.60;29.20
32173;DHT22;18679;45.190;5.722;2022-09-01T12:31:06;38.00;28.70
32173;DHT22;18679;45.190;5.722;2022-09-01T12:37:26;39.10;27.80
32173;DHT22;18679;45.190;5.722;2022-09-01T12:40:32;39.60;27.00
32173;DHT22;18679;45.190;5.722;2022-09-01T12:43:38;39.80;26.60
32173;DHT22;18679;45.190;5.722;2022-09-01T12:46:41;40.00;26.10
32173;DHT22;18679;45.190;5.722;2022-09-01T12:49:45;40.10;25.70
32173;DHT22;18679;45.190;5.722;2022-09-01T12:52:49;40.40;25.80
32173;DHT22;18679;45.190;5.722;2022-09-01T12:59:26;41.00;24.50
32173;DHT22;18679;45.190;5.722;2022-09-01T13:03:04;41.30;24.20
32173;DHT22;18679;45.190;5.722;2022-09-01T13:06:06;41.60;23.80
32173;DHT22;18679;45.190;5.722;2022-09-01T13:09:07;42.20;23.30
32173;DHT22;18679;45.190;5.722;2022-09-01T13:12:16;42.50;22.70
32173;DHT22;18679;45.190;5.722;2022-09-01T13:15:17;42.70;22.50
32173;DHT22;18679;45.190;5.722;2022-09-01T13:18:20;43.10;22.10
32173;DHT22;18679;45.190;5.722;2022-09-01T13:21:21;43.10;21.90
32173;DHT22;18679;45.190;5.722;2022-09-01T13:24:22;43.30;21.70
32173;DHT22;18679;45.190;5.722;2022-09-01T13:27:23;43.40;21.60
32173;DHT22;18679;45.190;5.722;2022-09-01T13:30:25;43.60;21.50
32173;DHT22;18679;45.190;5.722;2022-09-01T13:33:30;43.70;21.20
32173;DHT22;18679;45.190;5.722;2022-09-01T13:36:31;43.90;21.20
32173;DHT22;18679;45.190;5.722;2022-09-01T13:39:32;44.10;20.90
32173;DHT22;18679;45.190;5.722;2022-09-01T13:42:33;44.20;20.70
32173;DHT22;18679;45.190;5.722;2022-09-01T13:45:34;44.40;20.50
32173;DHT22;18679;45.190;5.722;2022-09-01T13:48:35;44.40;20.40
32173;DHT22;18679;45.190;5.722;2022-09-01T13:51:39;44.40;20.40
32173;DHT22;18679;45.190;5.722;2022-09-01T13:54:40;44.60;20.40
32173;DHT22;18679;45.190;5.722;2022-09-01T13:57:44;44.70;20.10
32173;DHT22;18679;45.190;5.722;2022-09-01T14:00:46;44.90;20.10
32173;DHT22;18679;45.190;5.722;2022-09-01T14:03:48;45.00;20.00
32173;DHT22;18679;45.190;5.722;2022-09-01T14:06:50;44.40;20.10
32173;DHT22;18679;45.190;5.722;2022-09-01T14:09:51;43.10;20.60
32173;DHT22;18679;45.190;5.722;2022-09-01T14:12:52;41.90;21.30
32173;DHT22;18679;45.190;5.722;2022-09-01T14:15:53;40.90;21.90
32173;DHT22;18679;45.190;5.722;2022-09-01T14:18:54;40.00;22.30
32173;DHT22;18679;45.190;5.722;2022-09-01T14:21:55;38.80;22.80
32173;DHT22;18679;45.190;5.722;2022-09-01T14:24:58;37.70;23.70
32173;DHT22;18679;45.190;5.722;2022-09-01T14:28:00;36.90;24.30
32173;DHT22;18679;45.190;5.722;2022-09-01T14:31:07;36.20;24.90
32173;DHT22;18679;45.190;5.722;2022-09-01T14:34:09;35.50;25.40
32173;DHT22;18679;45.190;5.722;2022-09-01T14:37:11;35.10;25.90
32173;DHT22;18679;45.190;5.722;2022-09-01T14:40:14;34.60;26.20
32173;DHT22;18679;45.190;5.722;2022-09-01T14:43:17;34.30;26.50
32173;DHT22;18679;45.190;5.722;2022-09-01T14:46:19;34.00;26.60
32173;DHT22;18679;45.190;5.722;2022-09-01T14:49:20;33.70;26.80
32173;DHT22;18679;45.190;5.722;2022-09-01T14:52:21;33.50;27.10
32173;DHT22;18679;45.190;5.722;2022-09-01T14:55:24;33.30;27.30
32173;DHT22;18679;45.190;5.722;2022-09-01T14:58:27;33.20;27.60
32173;DHT22;18679;45.190;5.722;2022-09-01T15:01:28;33.10;27.70
32173;DHT22;18679;45.190;5.722;2022-09-01T15:04:29;33.00;27.80
32173;DHT22;18679;45.190;5.722;2022-09-01T15:07:33;33.00;27.90
32173;DHT22;18679;45.190;5.722;2022-09-01T15:10:34;32.90;28.00
32173;DHT22;18679;45.190;5.722;2022-09-01T15:13:37;32.90;28.10
32173;DHT22;18679;45.190;5.722;2022-09-01T15:16:40;32.90;28.20
32173;DHT22;18679;45.190;5.722;2022-09-01T15:19:41;32.80;28.70
32173;DHT22;18679;45.190;5.722;2022-09-01T15:22:42;32.80;28.30
32173;DHT22;18679;45.190;5.722;2022-09-01T15:25:43;32.80;28.80
32173;DHT22;18679;45.190;5.722;2022-09-01T15:28:45;32.80;28.30
32173;DHT22;18679;45.190;5.722;2022-09-01T15:31:48;32.80;28.30
32173;DHT22;18679;45.190;5.722;2022-09-01T15:34:49;32.80;28.30
32173;DHT22;18679;45.190;5.722;2022-09-01T15:37:51;32.80;28.20
32173;DHT22;18679;45.190;5.722;2022-09-01T15:40:52;32.80;28.00
32173;DHT22;18679;45.190;5.722;2022-09-01T15:43:56;32.80;28.10
32173;DHT22;18679;45.190;5.722;2022-09-01T15:46:57;32.70;28.60
32173;DHT22;18679;45.190;5.722;2022-09-01T15:49:58;32.70;27.90
32173;DHT22;18679;45.190;5.722;2022-09-01T15:53:02;32.70;27.90
32173;DHT22;18679;45.190;5.722;2022-09-01T15:56:09;32.70;27.80
32173;DHT22;18679;45.190;5.722;2022-09-01T15:59:10;32.70;27.80
32173;DHT22;18679;45.190;5.722;2022-09-01T16:02:12;32.90;27.80
32173;DHT22;18679;45.190;5.722;2022-09-01T16:05:15;33.80;27.20
32173;DHT22;18679;45.190;5.722;2022-09-01T16:08:17;35.10;25.80
32173;DHT22;18679;45.190;5.722;2022-09-01T16:11:23;36.40;24.80
32173;DHT22;18679;45.190;5.722;2022-09-01T16:14:24;37.70;23.80
32173;DHT22;18679;45.190;5.722;2022-09-01T16:21:13;39.10;22.10
32173;DHT22;18679;45.190;5.722;2022-09-01T16:24:17;38.80;22.10
32173;DHT22;18679;45.190;5.722;2022-09-01T16:27:27;38.40;22.60
32173;DHT22;18679;45.190;5.722;2022-09-01T16:30:31;37.90;22.90
32173;DHT22;18679;45.190;5.722;2022-09-01T16:33:33;37.20;23.30
32173;DHT22;18679;45.190;5.722;2022-09-01T16:36:44;36.70;23.90
32173;DHT22;18679;45.190;5.722;2022-09-01T16:46:45;34.70;25.40
32173;DHT22;18679;45.190;5.722;2022-09-01T17:00:10;33.00;26.90
32173;DHT22;18679;45.190;5.722;2022-09-01T17:03:18;32.80;27.20
32173;DHT22;18679;45.190;5.722;2022-09-01T17:06:34;32.60;27.50
32173;DHT22;18679;45.190;5.722;2022-09-01T17:10:01;32.40;27.70
32173;DHT22;18679;45.190;5.722;2022-09-01T17:13:26;32.30;27.90
32173;DHT22;18679;45.190;5.722;2022-09-01T17:16:40;32.10;28.10
32173;DHT22;18679;45.190;5.722;2022-09-01T17:19:41;32.00;28.30
32173;DHT22;18679;45.190;5.722;2022-09-01T17:22:50;31.80;28.50
32173;DHT22;18679;45.190;5.722;2022-09-01T17:25:54;31.70;28.80
32173;DHT22;18679;45.190;5.722;2022-09-01T17:29:08;31.60;28.90
32173;DHT22;18679;45.190;5.722;2022-09-01T17:39:06;31.20;29.30
32173;DHT22;18679;45.190;5.722;2022-09-01T17:45:38;31.00;29.90
32173;DHT22;18679;45.190;5.722;2022-09-01T17:49:19;30.90;30.10
32173;DHT22;18679;45.190;5.722;2022-09-01T17:52:48;30.70;30.70
32173;DHT22;18679;45.190;5.722;2022-09-01T17:56:03;30.60;30.90
32173;DHT22;18679;45.190;5.722;2022-09-01T18:06:03;30.20;32.00
32173;DHT22;18679;45.190;5.722;2022-09-01T18:09:06;30.10;32.30
32173;DHT22;18679;45.190;5.722;2022-09-01T18:12:11;30.00;32.50
32173;DHT22;18679;45.190;5.722;2022-09-01T18:15:16;29.90;32.90
32173;DHT22;18679;45.190;5.722;2022-09-01T18:18:27;29.80;33.10
32173;DHT22;18679;45.190;5.722;2022-09-01T18:21:36;29.70;33.50
32173;DHT22;18679;45.190;5.722;2022-09-01T18:25:02;29.60;33.60
32173;DHT22;18679;45.190;5.722;2022-09-01T18:28:02;29.50;33.90
32173;DHT22;18679;45.190;5.722;2022-09-01T18:37:46;29.20;34.60
32173;DHT22;18679;45.190;5.722;2022-09-01T18:41:08;29.20;34.80
32173;DHT22;18679;45.190;5.722;2022-09-01T18:47:49;29.00;35.20
32173;DHT22;18679;45.190;5.722;2022-09-01T18:54:19;28.90;35.40
32173;DHT22;18679;45.190;5.722;2022-09-01T18:57:34;28.90;35.70
32173;DHT22;18679;45.190;5.722;2022-09-01T19:00:51;28.70;35.80
32173;DHT22;18679;45.190;5.722;2022-09-01T19:11:02;28.60;36.20
32173;DHT22;18679;45.190;5.722;2022-09-01T19:14:38;28.50;36.40
32173;DHT22;18679;45.190;5.722;2022-09-01T19:17:48;28.50;36.70
32173;DHT22;18679;45.190;5.722;2022-09-01T19:21:28;28.40;37.00
32173;DHT22;18679;45.190;5.722;2022-09-01T19:24:35;28.30;37.20
32173;DHT22;18679;45.190;5.722;2022-09-01T19:27:38;28.20;37.40
32173;DHT22;18679;45.190;5.722;2022-09-01T19:30:44;28.20;37.50
32173;DHT22;18679;45.190;5.722;2022-09-01T19:33:56;28.10;37.70
32173;DHT22;18679;45.190;5.722;2022-09-01T19:37:00;28.10;38.00
32173;DHT22;18679;45.190;5.722;2022-09-01T19:40:01;28.10;38.00
32173;DHT22;18679;45.190;5.722;2022-09-01T19:43:10;28.00;38.10
32173;DHT22;18679;45.190;5.722;2022-09-01T19:49:32;28.00;38.30
32173;DHT22;18679;45.190;5.722;2022-09-01T20:02:31;27.80;38.20
32173;DHT22;18679;45.190;5.722;2022-09-01T20:09:07;27.80;38.40
32173;DHT22;18679;45.190;5.722;2022-09-01T20:12:41;27.70;38.50
32173;DHT22;18679;45.190;5.722;2022-09-01T20:15:50;27.70;38.80
32173;DHT22;18679;45.190;5.722;2022-09-01T20:22:40;27.60;39.30
32173;DHT22;18679;45.190;5.722;2022-09-01T20:25:50;27.50;39.50
32173;DHT22;18679;45.190;5.722;2022-09-01T20:32:43;27.30;40.10
32173;DHT22;18679;45.190;5.722;2022-09-01T20:35:51;27.30;40.40
32173;DHT22;18679;45.190;5.722;2022-09-01T20:39:09;27.20;40.60
32173;DHT22;18679;45.190;5.722;2022-09-01T20:42:44;27.10;40.90
32173;DHT22;18679;45.190;5.722;2022-09-01T20:45:48;27.10;41.10
32173;DHT22;18679;45.190;5.722;2022-09-01T20:48:49;27.00;41.00
32173;DHT22;18679;45.190;5.722;2022-09-01T20:51:58;27.00;41.30
32173;DHT22;18679;45.190;5.722;2022-09-01T20:55:23;27.00;41.50
32173;DHT22;18679;45.190;5.722;2022-09-01T20:58:36;26.90;41.60
32173;DHT22;18679;45.190;5.722;2022-09-01T21:01:47;26.90;41.80
32173;DHT22;18679;45.190;5.722;2022-09-01T21:08:46;26.80;41.80
32173;DHT22;18679;45.190;5.722;2022-09-01T21:12:20;26.80;41.90
32173;DHT22;18679;45.190;5.722;2022-09-01T21:15:32;26.80;41.80
32173;DHT22;18679;45.190;5.722;2022-09-01T21:24:50;26.70;41.90
32173;DHT22;18679;45.190;5.722;2022-09-01T21:27:53;26.70;42.00
32173;DHT22;18679;45.190;5.722;2022-09-01T21:30:57;26.70;42.10
32173;DHT22;18679;45.190;5.722;2022-09-01T21:33:59;26.70;42.20
32173;DHT22;18679;45.190;5.722;2022-09-01T21:37:00;26.60;42.20
32173;DHT22;18679;45.190;5.722;2022-09-01T21:40:02;26.60;42.50
32173;DHT22;18679;45.190;5.722;2022-09-01T21:43:06;26.60;42.80
32173;DHT22;18679;45.190;5.722;2022-09-01T21:46:09;26.60;43.00
32173;DHT22;18679;45.190;5.722;2022-09-01T21:49:10;26.60;43.40
32173;DHT22;18679;45.190;5.722;2022-09-01T21:52:15;26.50;43.30
32173;DHT22;18679;45.190;5.722;2022-09-01T21:55:16;26.50;43.40
32173;DHT22;18679;45.190;5.722;2022-09-01T21:58:17;26.50;43.50
32173;DHT22;18679;45.190;5.722;2022-09-01T22:01:18;26.40;43.40